< < Back
Terminal Aerodrome Forecast


Current Version              Previous Versions:   1  2  3  4  5  6  7  8  9  

Terminal Aerodrome Forecast

800
FTUS42 KCHS 211700
TAFSAV
TAF
KSAV 211720Z 2118/2218 26007KT P6SM SKC
     FM220600 32006KT P6SM SKC
     FM221330 35010G15KT P6SM SKC=

Latest METAR

376
SAUS80 KWBC 211828
MTRSAV
METAR KSAV 211753Z COR 31006KT 10SM CLR 27/13 A2993 RMK AO2 SLP134
T02670128 10272 20161 58023 $


USA.gov is the U.S. government's official web portal to all federal, state and local government web resources and services.